Time;durP1;ratioP1;P1;durP2;ratioP2;P2;SDS_P1;SDS_P2;PMS_P1;PMS_P2;Temp;Humidity;BMP_temperature;BMP_pressure;BME280_temperature;BME280_humidity;BME280_pressure;Samples;Min_cycle;Max_cycle;Signal;HPM_P1;HPM_P2
2022/10/31 00:02:01;;;;;;;8.10;3.00;;;;;;;15.58;66.10;97029.05;105152;1283;23017;-82
2022/10/31 00:04:32;;;;;;;8.20;3.60;;;;;;;15.60;65.91;97025.94;105168;1281;22464;-82
2022/10/31 00:07:03;;;;;;;9.90;3.50;;;;;;;15.53;65.62;97025.05;105173;1303;22465;-82
2022/10/31 00:09:34;;;;;;;9.10;3.30;;;;;;;15.48;65.77;97030.23;105162;1289;22529;-82
2022/10/31 00:12:05;;;;;;;9.50;2.90;;;;;;;15.50;65.61;97028.48;105120;1303;33176;-82
2022/10/31 00:14:36;;;;;;;10.50;3.10;;;;;;;15.49;65.47;97029.04;105194;1288;22560;-82
2022/10/31 00:17:07;;;;;;;5.30;2.70;;;;;;;15.26;65.32;97029.39;105203;1282;25443;-82
2022/10/31 00:19:39;;;;;;;7.70;3.10;;;;;;;15.11;65.73;97031.73;105145;1294;22475;-82
2022/10/31 00:22:10;;;;;;;8.40;3.20;;;;;;;15.08;65.94;97032.75;105135;1295;24898;-82
2022/10/31 00:24:41;;;;;;;6.60;2.90;;;;;;;14.98;65.78;97034.75;105177;1289;25362;-82
2022/10/31 00:27:12;;;;;;;5.70;3.10;;;;;;;14.85;65.91;97038.77;105179;1281;22483;-82
2022/10/31 00:29:43;;;;;;;7.60;3.20;;;;;;;14.65;66.28;97039.02;105177;1302;22495;-82
2022/10/31 00:32:14;;;;;;;9.90;3.10;;;;;;;14.56;66.50;97035.54;105124;1288;22452;-82
2022/10/31 00:34:45;;;;;;;6.90;3.20;;;;;;;14.44;66.75;97041.02;105188;1280;22479;-82
2022/10/31 00:37:16;;;;;;;10.10;4.00;;;;;;;14.36;67.09;97040.28;105149;1295;23927;-82
2022/10/31 00:39:49;;;;;;;9.30;3.40;;;;;;;14.34;67.36;97037.80;105173;1297;22483;-83
2022/10/31 00:42:20;;;;;;;6.50;2.90;;;;;;;14.34;67.45;97038.48;105076;1296;30215;-83
2022/10/31 00:44:51;;;;;;;7.10;3.00;;;;;;;14.39;67.51;97039.54;105232;1302;22507;-83
2022/10/31 00:47:22;;;;;;;8.90;3.10;;;;;;;14.54;67.27;97040.48;105179;1281;22558;-83
2022/10/31 00:49:53;;;;;;;10.40;3.00;;;;;;;14.59;66.91;97038.63;105143;1292;22461;-83
2022/10/31 00:52:24;;;;;;;7.60;3.40;;;;;;;14.58;66.79;97040.09;105065;1295;22467;-82
2022/10/31 00:54:55;;;;;;;8.10;3.10;;;;;;;14.54;66.81;97041.86;105214;1295;24260;-83
2022/10/31 00:57:27;;;;;;;8.60;2.80;;;;;;;14.46;66.89;97040.14;105143;1291;22467;-83
2022/10/31 00:59:58;;;;;;;9.80;3.40;;;;;;;14.34;67.04;97043.73;105160;1273;25377;-82
2022/10/31 01:02:29;;;;;;;6.50;3.40;;;;;;;14.27;67.41;97041.69;105129;1281;25907;-82
2022/10/31 01:05:00;;;;;;;6.50;3.30;;;;;;;14.25;67.45;97039.81;105176;1282;22509;-82
2022/10/31 01:07:31;;;;;;;6.70;2.90;;;;;;;14.21;67.45;97042.00;105208;1303;22505;-82
2022/10/31 01:10:02;;;;;;;7.90;3.40;;;;;;;14.28;67.59;97043.08;105140;1295;22536;-82
2022/10/31 01:12:38;;;;;;;8.50;3.40;;;;;;;14.22;67.54;97042.02;105095;1288;30890;-82
2022/10/31 01:15:12;;;;;;;8.90;2.70;;;;;;;14.16;67.56;97038.51;105230;1295;22466;-82
2022/10/31 01:17:43;;;;;;;6.30;3.10;;;;;;;14.19;67.70;97034.71;105118;1304;22515;-82
2022/10/31 01:20:16;;;;;;;7.00;2.40;;;;;;;14.17;67.77;97037.30;105150;1304;22684;-82
2022/10/31 01:22:47;;;;;;;7.80;3.10;;;;;;;14.23;67.64;97036.42;105118;1282;29861;-82
2022/10/31 01:25:18;;;;;;;7.80;2.70;;;;;;;14.32;67.51;97035.11;105164;1290;22507;-82
2022/10/31 01:27:49;;;;;;;7.80;2.80;;;;;;;14.40;67.15;97030.20;105171;1303;24526;-82
2022/10/31 01:30:20;;;;;;;6.50;2.20;;;;;;;14.49;66.91;97035.70;105165;1295;22481;-82
2022/10/31 01:32:52;;;;;;;4.40;2.10;;;;;;;14.59;66.66;97030.79;105055;1288;22472;-82
2022/10/31 01:35:23;;;;;;;6.80;2.40;;;;;;;14.85;66.19;97031.87;105085;1281;22475;-82
2022/10/31 01:37:53;;;;;;;5.10;2.30;;;;;;;14.83;65.78;97033.52;105139;1281;22471;-82
2022/10/31 01:40:25;;;;;;;6.10;2.80;;;;;;;14.83;65.73;97031.81;105203;1298;23254;-82
2022/10/31 01:42:56;;;;;;;9.80;2.50;;;;;;;14.96;65.45;97031.74;105071;1288;24120;-82
2022/10/31 01:45:27;;;;;;;8.30;2.50;;;;;;;15.10;65.01;97024.59;105172;1290;22467;-83
2022/10/31 01:47:58;;;;;;;6.20;2.70;;;;;;;15.03;64.70;97030.75;105171;1304;22480;-80
2022/10/31 01:50:34;;;;;;;6.90;2.80;;;;;;;14.96;64.76;97030.14;105151;1297;22501;-82
2022/10/31 01:53:09;;;;;;;7.00;2.50;;;;;;;15.05;64.83;97025.37;105124;1281;22480;-83
2022/10/31 01:55:44;;;;;;;6.60;2.50;;;;;;;15.03;64.58;97021.73;105146;1284;22548;-82
2022/10/31 01:58:20;;;;;;;7.30;2.90;;;;;;;14.83;64.50;97022.90;105140;1306;22587;-82
2022/10/31 02:00:57;;;;;;;7.20;2.80;;;;;;;14.63;64.89;97019.63;105210;1288;22481;-82
2022/10/31 02:03:30;;;;;;;7.80;2.90;;;;;;;14.60;65.15;97019.84;105157;1304;22466;-82
2022/10/31 02:06:01;;;;;;;8.10;3.20;;;;;;;14.57;65.25;97021.22;105135;1288;22468;-82
2022/10/31 02:08:35;;;;;;;11.60;3.60;;;;;;;14.45;65.25;97020.45;105187;1297;22477;-82
2022/10/31 02:11:07;;;;;;;5.50;2.60;;;;;;;14.38;65.46;97024.98;105234;1304;22545;-82
2022/10/31 02:13:39;;;;;;;8.50;3.00;;;;;;;14.58;65.35;97022.17;105117;1303;30515;-82
2022/10/31 02:16:13;;;;;;;6.40;2.90;;;;;;;14.92;64.74;97019.48;105162;1287;24129;-84
2022/10/31 02:18:44;;;;;;;5.00;2.50;;;;;;;15.16;64.08;97023.45;105148;1288;22470;-83
2022/10/31 02:21:20;;;;;;;8.90;2.70;;;;;;;15.34;63.44;97016.31;105202;1303;22430;-83
2022/10/31 02:24:24;;;;;;;6.90;2.30;;;;;;;15.37;63.09;97016.20;105121;1294;25330;-83
2022/10/31 02:27:17;;;;;;;7.00;2.50;;;;;;;15.34;63.04;97014.80;105167;1301;23613;-82
2022/10/31 02:30:10;;;;;;;7.60;2.40;;;;;;;15.27;63.00;97016.17;105194;1285;24284;-83
2022/10/31 02:32:52;;;;;;;5.90;2.70;;;;;;;15.20;63.12;97017.60;105096;1287;30485;-83
2022/10/31 02:35:34;;;;;;;8.20;2.90;;;;;;;15.11;63.30;97016.65;105128;1296;22481;-82
2022/10/31 02:38:15;;;;;;;7.40;3.30;;;;;;;14.92;63.38;97021.92;105131;1306;22484;-82
2022/10/31 02:40:55;;;;;;;6.20;2.20;;;;;;;14.72;63.71;97023.84;105174;1299;22527;-83
2022/10/31 02:43:33;;;;;;;8.80;3.00;;;;;;;14.58;64.06;97025.73;105116;1297;22489;-82
2022/10/31 02:46:09;;;;;;;6.90;2.40;;;;;;;14.47;64.35;97023.95;105145;1298;22534;-82
2022/10/31 02:48:44;;;;;;;12.30;3.20;;;;;;;14.39;64.55;97030.10;105144;1281;23385;-82
2022/10/31 02:51:16;;;;;;;8.20;2.30;;;;;;;14.30;64.77;97033.48;105173;1290;25331;-82
2022/10/31 02:53:47;;;;;;;6.90;2.50;;;;;;;14.28;64.93;97035.80;105094;1294;27229;-82
2022/10/31 02:56:20;;;;;;;8.10;2.80;;;;;;;14.30;65.04;97034.30;105164;1294;24222;-82
2022/10/31 02:58:55;;;;;;;7.70;2.60;;;;;;;14.33;65.06;97032.42;105122;1281;22482;-82
2022/10/31 03:01:51;;;;;;;7.40;2.90;;;;;;;14.39;64.99;97034.63;105158;1306;22474;-82
2022/10/31 03:04:58;;;;;;;8.10;3.10;;;;;;;14.40;64.93;97037.38;105142;1288;24330;-83
2022/10/31 03:07:36;;;;;;;5.50;2.60;;;;;;;14.46;64.86;97037.36;104909;1294;22517;-83
2022/10/31 03:10:17;;;;;;;8.30;3.00;;;;;;;14.44;64.85;97042.89;105165;1297;22468;-83
2022/10/31 03:13:02;;;;;;;7.20;2.80;;;;;;;14.44;64.86;97048.59;105092;1280;31918;-83
2022/10/31 03:15:37;;;;;;;6.30;2.60;;;;;;;14.45;64.86;97042.45;105114;1304;23137;-83
2022/10/31 03:18:13;;;;;;;9.60;3.50;;;;;;;14.46;64.80;97045.63;105127;1304;22466;-82
2022/10/31 03:20:48;;;;;;;6.40;2.80;;;;;;;14.49;64.73;97048.41;105160;1298;22477;-82
2022/10/31 03:23:23;;;;;;;5.30;2.10;;;;;;;14.47;64.67;97051.58;105086;1306;22539;-80
2022/10/31 03:25:56;;;;;;;9.90;3.10;;;;;;;14.41;64.77;97051.03;105167;1306;22484;-80
2022/10/31 03:28:33;;;;;;;8.20;2.90;;;;;;;14.39;64.79;97053.10;105121;1298;22483;-82
2022/10/31 03:31:06;;;;;;;9.00;2.90;;;;;;;14.37;64.90;97058.83;105191;1306;22499;-82
2022/10/31 03:33:40;;;;;;;7.60;2.70;;;;;;;14.32;64.88;97054.62;105103;1282;22466;-81
2022/10/31 03:36:15;;;;;;;6.50;2.90;;;;;;;14.33;65.06;97056.58;105160;1306;25383;-82
2022/10/31 03:38:48;;;;;;;6.30;2.90;;;;;;;14.31;65.10;97053.48;105159;1291;23300;-83
2022/10/31 03:41:26;;;;;;;6.30;2.50;;;;;;;14.25;65.10;97057.14;105174;1288;22470;-83
2022/10/31 03:44:00;;;;;;;7.60;2.80;;;;;;;14.19;65.38;97057.15;105223;1295;32154;-82
2022/10/31 03:46:32;;;;;;;6.70;2.20;;;;;;;14.22;65.46;97057.77;105151;1305;22541;-82
2022/10/31 03:49:04;;;;;;;5.50;2.40;;;;;;;14.29;65.24;97055.53;105112;1298;24341;-82
2022/10/31 03:51:43;;;;;;;7.50;2.70;;;;;;;14.40;64.97;97057.98;105100;1287;22520;-82
2022/10/31 03:54:24;;;;;;;8.50;3.10;;;;;;;14.56;64.58;97057.37;105172;1281;22459;-82
2022/10/31 03:56:56;;;;;;;;;;;;;;;14.53;64.44;97059.18;105180;1288;22427;-82
2022/10/31 03:59:33;;;;;;;7.60;2.50;;;;;;;14.50;64.45;97058.48;105159;1288;22482;-82
2022/10/31 04:02:12;;;;;;;8.30;2.10;;;;;;;14.57;64.31;97058.15;105083;1289;26966;-82
2022/10/31 04:04:45;;;;;;;6.80;2.10;;;;;;;14.73;63.70;97054.62;105151;1288;22464;-83
2022/10/31 04:07:17;;;;;;;8.50;2.50;;;;;;;14.96;63.04;97053.04;105156;1288;23248;-83
2022/10/31 04:09:51;;;;;;;6.10;2.40;;;;;;;15.11;62.73;97054.68;105160;1285;23481;-83
2022/10/31 04:12:25;;;;;;;6.70;2.50;;;;;;;15.13;62.50;97057.36;105140;1288;24277;-83
2022/10/31 04:14:58;;;;;;;6.50;2.20;;;;;;;15.09;62.53;97055.27;105181;1284;22475;-83
2022/10/31 04:17:34;;;;;;;5.60;2.40;;;;;;;15.01;62.58;97055.98;105158;1287;22467;-83
2022/10/31 04:20:07;;;;;;;10.70;2.30;;;;;;;14.92;62.67;97053.77;105181;1289;22490;-83
2022/10/31 04:22:38;;;;;;;7.40;3.10;;;;;;;14.77;62.92;97050.96;105127;1288;24507;-82
2022/10/31 04:25:11;;;;;;;8.80;2.40;;;;;;;14.68;63.15;97050.56;105184;1282;25377;-83
2022/10/31 04:27:42;;;;;;;5.90;2.20;;;;;;;14.59;63.33;97048.89;105211;1287;25494;-83
2022/10/31 04:30:14;;;;;;;5.40;2.50;;;;;;;14.46;63.62;97051.07;105193;1288;22540;-83
2022/10/31 04:32:45;;;;;;;4.50;2.30;;;;;;;14.39;63.73;97047.48;105134;1281;25054;-83
2022/10/31 04:35:17;;;;;;;6.80;2.80;;;;;;;14.40;63.80;97045.81;105205;1287;22459;-83
2022/10/31 04:37:48;;;;;;;7.50;2.50;;;;;;;14.39;63.77;97047.11;105167;1287;22938;-83
2022/10/31 04:40:19;;;;;;;5.90;2.10;;;;;;;14.38;63.77;97048.14;105166;1294;22959;-83
2022/10/31 04:42:50;;;;;;;6.50;2.40;;;;;;;14.44;63.66;97043.46;105090;1288;26715;-83
2022/10/31 04:45:21;;;;;;;5.30;2.40;;;;;;;14.53;63.39;97048.98;105158;1287;26474;-83
2022/10/31 04:47:53;;;;;;;8.50;2.40;;;;;;;14.54;63.20;97047.58;105157;1281;22467;-83
2022/10/31 04:50:24;;;;;;;6.20;2.60;;;;;;;14.56;63.14;97052.19;105196;1281;22641;-83
2022/10/31 04:52:55;;;;;;;6.40;2.20;;;;;;;14.53;63.18;97050.05;105108;1279;25734;-83
2022/10/31 04:55:26;;;;;;;7.10;2.30;;;;;;;14.46;63.25;97053.56;105175;1288;22523;-83
2022/10/31 04:57:58;;;;;;;9.80;2.40;;;;;;;14.26;63.38;97050.23;105174;1287;22777;-83
2022/10/31 05:00:29;;;;;;;11.60;2.60;;;;;;;14.10;63.79;97051.23;105201;1282;22471;-83
2022/10/31 05:03:02;;;;;;;3.60;2.10;;;;;;;13.98;63.99;97049.77;105152;1287;22466;-83
2022/10/31 05:05:34;;;;;;;9.00;2.10;;;;;;;13.92;64.32;97044.55;105245;1285;22456;-83
2022/10/31 05:08:05;;;;;;;8.80;2.30;;;;;;;13.94;64.44;97047.73;105194;1289;22468;-83
2022/10/31 05:10:39;;;;;;;9.10;2.40;;;;;;;13.96;64.57;97051.48;105191;1288;25187;-83
2022/10/31 05:13:11;;;;;;;6.90;2.40;;;;;;;13.83;64.51;97047.19;105106;1284;26934;-83
2022/10/31 05:15:42;;;;;;;7.10;2.30;;;;;;;13.58;64.87;97049.39;105155;1288;22484;-83
2022/10/31 05:18:13;;;;;;;6.60;2.20;;;;;;;13.42;65.41;97050.98;105156;1295;22485;-83
2022/10/31 05:20:47;;;;;;;6.50;2.60;;;;;;;13.34;65.77;97057.72;105195;1287;22980;-83
2022/10/31 05:23:19;;;;;;;7.50;2.80;;;;;;;13.46;66.05;97054.23;105126;1294;24826;-83
2022/10/31 05:25:50;;;;;;;8.80;2.70;;;;;;;13.59;66.00;97056.41;105181;1282;22513;-83
2022/10/31 05:28:23;;;;;;;7.30;2.70;;;;;;;13.61;65.81;97059.10;105144;1280;24120;-83
2022/10/31 05:30:55;;;;;;;8.30;2.40;;;;;;;13.62;65.62;97060.95;105145;1285;22464;-83
2022/10/31 05:33:26;;;;;;;6.30;2.30;;;;;;;13.63;65.53;97067.22;105090;1288;22659;-83
2022/10/31 05:35:57;;;;;;;7.20;2.70;;;;;;;13.81;65.59;97068.29;105177;1287;23674;-83
2022/10/31 05:38:30;;;;;;;11.30;3.00;;;;;;;14.03;65.24;97070.27;105165;1287;24281;-83
2022/10/31 05:41:01;;;;;;;7.60;2.50;;;;;;;14.39;64.29;97078.81;105234;1289;24433;-83
2022/10/31 05:43:33;;;;;;;9.40;2.40;;;;;;;14.58;63.96;97078.05;105139;1295;22503;-83
2022/10/31 05:46:07;;;;;;;8.20;2.80;;;;;;;14.42;63.73;97083.79;105198;1293;22449;-83
2022/10/31 05:48:39;;;;;;;8.40;2.30;;;;;;;14.34;63.82;97087.83;105016;1288;217098;-83
2022/10/31 05:51:11;;;;;;;7.70;2.30;;;;;;;14.29;63.91;97086.84;105183;1289;22453;-82
2022/10/31 05:53:42;;;;;;;7.40;2.20;;;;;;;14.21;64.08;97089.89;105087;1288;22656;-83
2022/10/31 05:56:13;;;;;;;7.60;2.80;;;;;;;14.25;64.19;97094.37;105133;1289;22465;-83
2022/10/31 05:58:44;;;;;;;5.60;2.60;;;;;;;14.42;64.01;97094.82;105187;1290;22582;-83
2022/10/31 06:01:16;;;;;;;6.60;2.70;;;;;;;14.65;63.85;97096.17;105154;1299;22593;-83
2022/10/31 06:03:47;;;;;;;6.70;2.20;;;;;;;14.90;63.41;97100.45;105113;1287;25677;-83
2022/10/31 06:06:18;;;;;;;9.90;2.70;;;;;;;15.29;62.82;97104.12;105166;1303;22499;-82
2022/10/31 06:08:49;;;;;;;7.10;2.60;;;;;;;15.66;62.18;97101.92;105144;1275;22462;-83
2022/10/31 06:11:20;;;;;;;7.20;2.50;;;;;;;15.99;61.43;97103.48;105189;1303;22653;-83
2022/10/31 06:13:51;;;;;;;12.10;3.30;;;;;;;16.26;60.55;97104.77;105170;1303;25290;-83
2022/10/31 06:16:23;;;;;;;6.70;2.20;;;;;;;16.55;59.81;97105.20;105197;1282;22455;-83
2022/10/31 06:18:54;;;;;;;8.40;2.80;;;;;;;16.83;59.15;97109.86;105134;1282;22469;-83
2022/10/31 06:21:25;;;;;;;7.50;2.00;;;;;;;17.10;58.23;97105.39;105197;1297;22464;-83
2022/10/31 06:23:56;;;;;;;7.00;3.10;;;;;;;17.26;57.12;97106.75;105224;1303;32478;-83
2022/10/31 06:26:28;;;;;;;7.90;2.00;;;;;;;17.44;56.77;97109.32;105252;1289;25384;-82
2022/10/31 06:28:59;;;;;;;6.60;1.90;;;;;;;17.63;55.62;97111.69;105242;1291;22556;-82
2022/10/31 06:31:30;;;;;;;8.50;2.40;;;;;;;17.95;55.20;97109.23;105204;1303;22458;-82
2022/10/31 06:34:02;;;;;;;5.70;2.30;;;;;;;18.20;54.74;97113.15;105193;1289;25486;-83
2022/10/31 06:36:33;;;;;;;7.10;2.80;;;;;;;18.42;53.90;97113.89;105198;1304;25206;-82
2022/10/31 06:39:04;;;;;;;7.10;2.70;;;;;;;18.65;53.89;97113.86;105175;1302;25048;-83
2022/10/31 06:41:37;;;;;;;8.40;2.70;;;;;;;18.94;53.72;97120.84;105074;1294;23544;-82
2022/10/31 06:44:09;;;;;;;6.90;2.50;;;;;;;19.19;53.17;97123.11;105179;1303;22541;-83
2022/10/31 06:46:40;;;;;;;6.90;2.90;;;;;;;19.50;52.57;97119.48;105169;1303;22498;-83
2022/10/31 06:49:11;;;;;;;7.60;2.80;;;;;;;19.74;51.86;97123.21;105181;1303;22498;-83
2022/10/31 06:51:43;;;;;;;9.30;2.40;;;;;;;19.77;52.01;97127.06;105118;1303;22467;-82
2022/10/31 06:54:14;;;;;;;6.70;2.50;;;;;;;20.04;51.32;97128.64;105163;1306;25388;-82
2022/10/31 07:08:21;;;;;;;6.70;2.20;;;;;;;21.75;48.95;97123.23;102440;1334;557977;-82
2022/10/31 07:10:56;;;;;;;7.90;2.50;;;;;;;22.52;47.64;97124.71;103725;1304;220457;-82
2022/10/31 07:13:27;;;;;;;10.70;2.80;;;;;;;22.46;46.67;97124.70;104213;1310;22491;-81
2022/10/31 07:16:04;;;;;;;9.50;2.70;;;;;;;22.57;46.89;97125.93;104280;1306;22550;-83
2022/10/31 07:18:37;;;;;;;9.60;3.40;;;;;;;22.59;46.88;97126.62;104248;1298;23062;-83
2022/10/31 07:21:09;;;;;;;5.80;2.50;;;;;;;22.90;46.30;97126.63;104332;1293;22645;-82
2022/10/31 07:23:40;;;;;;;8.60;2.80;;;;;;;23.30;45.90;97131.32;104366;1305;22522;-84
2022/10/31 07:26:12;;;;;;;6.90;2.40;;;;;;;23.42;45.00;97132.34;104402;1306;22502;-82
2022/10/31 07:28:44;;;;;;;9.00;3.10;;;;;;;23.65;44.85;97131.89;104309;1310;22497;-81
2022/10/31 07:31:15;;;;;;;10.40;2.60;;;;;;;23.95;43.69;97133.30;104363;1298;22484;-83
2022/10/31 07:33:46;;;;;;;9.60;2.70;;;;;;;24.02;42.45;97132.86;104349;1307;22478;-84
2022/10/31 07:36:17;;;;;;;6.60;2.60;;;;;;;23.81;42.29;97136.23;104395;1306;22721;-83
2022/10/31 07:38:50;;;;;;;6.00;2.20;;;;;;;23.79;42.09;97136.58;104301;1306;22487;-82
2022/10/31 07:41:21;;;;;;;8.10;2.50;;;;;;;23.69;41.65;97140.92;104334;1300;22927;-83
2022/10/31 07:43:53;;;;;;;5.60;2.50;;;;;;;23.56;41.56;97138.64;104250;1300;22498;-84
2022/10/31 07:46:24;;;;;;;10.20;2.30;;;;;;;23.60;41.43;97140.44;104272;1306;22496;-84
2022/10/31 07:48:55;;;;;;;8.30;2.30;;;;;;;23.60;41.34;97141.39;104353;1296;22613;-84
2022/10/31 07:51:26;;;;;;;9.20;2.70;;;;;;;23.66;41.32;97143.77;104546;1302;22490;-84
2022/10/31 07:53:57;;;;;;;8.40;2.60;;;;;;;23.74;41.26;97142.26;104551;1293;22492;-86
2022/10/31 07:56:28;;;;;;;7.60;2.70;;;;;;;23.66;40.70;97140.89;104559;1307;22531;-84
2022/10/31 07:59:04;;;;;;;5.10;2.70;;;;;;;23.48;41.48;97138.88;104496;1310;22478;-85
2022/10/31 08:01:37;;;;;;;10.70;2.90;;;;;;;23.53;41.43;97134.16;104557;1314;22478;-84
2022/10/31 08:04:09;;;;;;;9.30;3.30;;;;;;;23.55;41.29;97133.05;104455;1314;22527;-86
2022/10/31 08:06:40;;;;;;;7.70;2.60;;;;;;;23.46;41.33;97137.77;104491;1297;24384;-85
2022/10/31 08:09:11;;;;;;;11.30;3.00;;;;;;;23.50;41.61;97136.92;104421;1297;22553;-86
2022/10/31 08:11:43;;;;;;;8.30;2.70;;;;;;;23.54;41.71;97139.36;104461;1297;22496;-87
2022/10/31 08:14:15;;;;;;;5.20;2.40;;;;;;;23.48;41.81;97140.73;104481;1296;22477;-85
2022/10/31 08:16:46;;;;;;;6.20;2.60;;;;;;;23.28;41.77;97140.92;104409;1298;24239;-87
2022/10/31 08:19:18;;;;;;;4.70;2.40;;;;;;;23.15;41.85;97140.06;104403;1297;23345;-89
2022/10/31 08:21:51;;;;;;;12.20;2.80;;;;;;;22.89;42.32;97139.21;104475;1296;25393;-86
2022/10/31 08:24:22;;;;;;;7.90;2.10;;;;;;;22.83;42.68;97142.99;104493;1313;22703;-86
2022/10/31 08:26:54;;;;;;;7.80;2.70;;;;;;;22.56;42.87;97139.64;104478;1296;22634;-85
2022/10/31 08:29:25;;;;;;;6.90;2.70;;;;;;;22.31;43.35;97139.23;104470;1297;22492;-87
2022/10/31 08:31:58;;;;;;;8.50;2.60;;;;;;;22.08;43.44;97140.08;104489;1313;22490;-86
2022/10/31 08:34:31;;;;;;;7.50;2.60;;;;;;;21.83;43.54;97141.14;104815;1288;22598;-85
2022/10/31 08:37:05;;;;;;;12.70;3.40;;;;;;;21.69;44.28;97141.61;104541;1299;25428;-86
2022/10/31 08:39:36;;;;;;;6.50;2.70;;;;;;;21.45;44.50;97148.02;104485;1312;22494;-86
2022/10/31 08:42:08;;;;;;;8.80;2.90;;;;;;;21.25;44.84;97146.70;104591;1310;22493;-86
2022/10/31 08:44:39;;;;;;;11.90;3.40;;;;;;;21.14;45.01;97149.66;104607;1296;22494;-86
2022/10/31 08:47:11;;;;;;;8.30;2.90;;;;;;;20.96;44.85;97147.55;104590;1299;24343;-87
2022/10/31 08:49:43;;;;;;;6.20;2.50;;;;;;;20.77;45.51;97148.42;104615;1297;22481;-88
2022/10/31 08:52:15;;;;;;;9.20;3.00;;;;;;;20.69;46.15;97144.13;104587;1313;24264;-90
2022/10/31 08:54:46;;;;;;;7.50;2.20;;;;;;;20.63;46.35;97139.08;104614;1311;22488;-88
2022/10/31 08:57:18;;;;;;;10.30;2.60;;;;;;;20.62;46.69;97141.72;104553;1305;22485;-88
2022/10/31 08:59:49;;;;;;;6.30;2.10;;;;;;;20.65;46.58;97142.52;104497;1305;22588;-88
2022/10/31 09:02:22;;;;;;;6.90;2.50;;;;;;;20.63;46.75;97140.93;104549;1296;25445;-88
2022/10/31 09:04:55;;;;;;;10.50;2.60;;;;;;;20.68;46.90;97143.71;104571;1291;22492;-89
2022/10/31 09:07:26;;;;;;;9.20;2.80;;;;;;;20.78;46.87;97144.99;104630;1302;22489;-88
2022/10/31 09:09:58;;;;;;;10.80;3.10;;;;;;;20.79;46.73;97148.34;104507;1292;22475;-90
2022/10/31 09:12:30;;;;;;;6.50;2.60;;;;;;;20.76;46.69;97149.62;104590;1313;22480;-86
2022/10/31 09:15:02;;;;;;;8.00;2.60;;;;;;;20.75;46.80;97150.53;104795;1289;25351;-88
2022/10/31 09:17:34;;;;;;;8.10;2.50;;;;;;;20.84;46.89;97151.74;104825;1309;24312;-84
2022/10/31 09:20:06;;;;;;;7.60;2.70;;;;;;;20.92;47.03;97150.03;104899;1306;55278;-85
2022/10/31 09:22:37;;;;;;;9.90;3.60;;;;;;;21.04;47.01;97146.14;104847;1290;22464;-85
2022/10/31 09:25:09;;;;;;;10.60;2.90;;;;;;;21.14;46.57;97151.19;104659;1309;24328;-86
2022/10/31 09:27:40;;;;;;;10.50;3.40;;;;;;;21.19;46.08;97148.91;105128;1309;22478;-86
2022/10/31 09:30:14;;;;;;;10.80;3.30;;;;;;;21.27;46.39;97149.51;105169;1309;22640;-86
2022/10/31 09:32:46;;;;;;;10.10;3.70;;;;;;;21.37;45.89;97148.48;105109;1309;22494;-86
2022/10/31 09:35:18;;;;;;;10.20;3.30;;;;;;;21.44;46.40;97151.21;105177;1309;22504;-85
2022/10/31 09:37:54;;;;;;;10.60;3.30;;;;;;;21.54;46.35;97149.54;104679;1306;22906;-86
2022/10/31 09:40:32;;;;;;;10.70;4.60;;;;;;;21.71;46.16;97148.02;104576;1310;22480;-86
2022/10/31 09:43:14;;;;;;;13.10;6.50;;;;;;;21.81;45.64;97149.57;104616;1309;22502;-86
2022/10/31 09:45:53;;;;;;;13.90;5.30;;;;;;;21.95;45.77;97151.62;104588;1302;22503;-85
2022/10/31 09:48:56;;;;;;;11.00;3.40;;;;;;;22.07;45.53;97157.31;104611;1291;22461;-85
2022/10/31 09:51:36;;;;;;;9.60;3.00;;;;;;;22.11;44.54;97153.69;104611;1302;22483;-86
2022/10/31 09:54:08;;;;;;;;;;;;;;;22.10;44.96;97151.80;105101;1292;23341;-85
2022/10/31 09:56:40;;;;;;;8.40;2.60;;;;;;;22.20;45.01;97148.55;105064;1308;22486;-85
2022/10/31 09:59:20;;;;;;;9.60;3.10;;;;;;;22.18;44.16;97151.66;105010;1294;24350;-85
2022/10/31 10:01:56;;;;;;;10.00;3.10;;;;;;;22.11;44.78;97146.60;105019;1290;22494;-86
2022/10/31 10:04:40;;;;;;;9.10;3.30;;;;;;;22.19;44.49;97149.08;105030;1310;25427;-86
2022/10/31 10:07:20;;;;;;;11.40;3.10;;;;;;;22.21;44.35;97149.66;105063;1309;22528;-84
2022/10/31 10:09:52;;;;;;;7.60;3.40;;;;;;;22.23;43.33;97152.80;104998;1287;25319;-85
2022/10/31 10:12:37;;;;;;;11.30;3.90;;;;;;;22.12;43.00;97148.23;105077;1295;22613;-85
2022/10/31 10:15:33;;;;;;;9.80;3.40;;;;;;;22.02;43.14;97153.45;105056;1302;22503;-85
2022/10/31 10:18:13;;;;;;;9.50;3.20;;;;;;;22.10;44.24;97152.86;105101;1308;22531;-85
2022/10/31 10:20:54;;;;;;;10.00;3.40;;;;;;;22.31;44.12;97147.88;104777;1307;22831;-85
2022/10/31 10:23:43;;;;;;;10.30;3.40;;;;;;;22.31;43.75;97149.42;104775;1300;22510;-86
2022/10/31 10:26:19;;;;;;;15.10;3.70;;;;;;;22.37;43.98;97148.08;104824;1300;22493;-85
2022/10/31 10:28:54;;;;;;;9.60;3.70;;;;;;;22.46;44.33;97146.92;104739;1302;24286;-85
2022/10/31 10:31:32;;;;;;;8.40;3.50;;;;;;;22.66;44.48;97149.98;104773;1299;25509;-85
2022/10/31 10:34:19;;;;;;;14.40;4.80;;;;;;;22.76;43.73;97151.57;104817;1309;22676;-86
2022/10/31 10:36:55;;;;;;;11.40;4.10;;;;;;;22.77;44.10;97149.91;104753;1290;22502;-86
2022/10/31 10:39:31;;;;;;;10.70;4.20;;;;;;;22.92;44.44;97149.02;104767;1294;22522;-86
2022/10/31 10:48:01;;;;;;;8.40;4.20;;;;;;;22.86;44.83;97147.77;104725;1294;22492;-82
2022/10/31 10:50:41;;;;;;;14.40;5.30;;;;;;;22.76;45.42;97146.48;104746;1302;22634;-80
2022/10/31 10:53:31;;;;;;;15.40;6.50;;;;;;;22.58;45.74;97143.59;105082;1286;22471;-80
2022/10/31 10:56:16;;;;;;;14.10;5.30;;;;;;;22.42;46.21;97145.14;105174;1296;22635;-81
2022/10/31 10:58:49;;;;;;;14.40;5.50;;;;;;;22.43;46.38;97139.60;105113;1297;22499;-81
2022/10/31 11:01:20;;;;;;;10.20;4.70;;;;;;;22.52;46.95;97141.70;105177;1298;22497;-81
2022/10/31 11:03:51;;;;;;;15.80;5.60;;;;;;;22.57;46.54;97138.43;105142;1291;23247;-81
2022/10/31 11:06:26;;;;;;;14.30;5.20;;;;;;;22.49;46.38;97139.45;105198;1279;22482;-78
2022/10/31 11:08:57;;;;;;;16.50;6.20;;;;;;;22.38;46.12;97138.98;105074;1305;22967;-80
2022/10/31 11:11:31;;;;;;;13.60;5.80;;;;;;;22.27;46.43;97137.05;105021;1305;22491;-79
2022/10/31 11:14:06;;;;;;;15.80;8.00;;;;;;;22.32;46.50;97138.49;104999;1297;23874;-77
2022/10/31 11:16:40;;;;;;;17.50;8.00;;;;;;;22.35;46.95;97135.52;104980;1298;22538;-81
2022/10/31 11:19:18;;;;;;;14.60;7.60;;;;;;;22.49;47.41;97135.74;104970;1301;28585;-78
2022/10/31 11:21:50;;;;;;;15.10;6.90;;;;;;;22.64;46.57;97132.93;105091;1298;22484;-77
2022/10/31 11:24:25;;;;;;;16.30;6.10;;;;;;;22.64;46.52;97136.23;105096;1300;22467;-81
2022/10/31 11:27:16;;;;;;;20.20;5.80;;;;;;;22.56;46.55;97133.86;105075;1285;25418;-79
2022/10/31 11:29:48;;;;;;;11.90;5.30;;;;;;;22.52;46.24;97132.98;105054;1280;24691;-84
2022/10/31 11:32:23;;;;;;;17.30;5.60;;;;;;;22.54;46.48;97131.90;105134;1304;22484;-77
2022/10/31 11:34:58;;;;;;;14.30;5.70;;;;;;;22.62;47.00;97131.09;105135;1287;23776;-86
2022/10/31 11:37:34;;;;;;;15.00;6.00;;;;;;;22.53;46.36;97132.45;105073;1304;22466;-83
2022/10/31 11:40:17;;;;;;;16.20;7.10;;;;;;;22.42;46.35;97128.75;105111;1304;22505;-84
2022/10/31 11:42:50;;;;;;;13.90;6.20;;;;;;;22.42;46.50;97128.39;105106;1290;22555;-80
2022/10/31 11:45:36;;;;;;;16.00;6.10;;;;;;;22.58;46.77;97125.59;105217;1305;22616;-82
2022/10/31 11:48:19;;;;;;;18.30;6.90;;;;;;;22.83;47.01;97131.01;105201;1297;22467;-78
2022/10/31 11:50:56;;;;;;;18.00;8.40;;;;;;;22.99;47.02;97127.27;105173;1280;23351;-81
2022/10/31 11:53:33;;;;;;;35.40;19.00;;;;;;;23.17;46.54;97129.20;105199;1302;22491;-77
2022/10/31 11:56:15;;;;;;;35.90;14.40;;;;;;;23.16;45.80;97129.11;105098;1305;24260;-86
2022/10/31 11:58:58;;;;;;;54.40;34.20;;;;;;;23.13;45.56;97130.17;105416;1296;22504;-85
2022/10/31 12:01:32;;;;;;;84.20;44.60;;;;;;;23.16;46.05;97128.56;105392;1298;23977;-87
2022/10/31 12:04:10;;;;;;;31.50;15.10;;;;;;;23.20;45.76;97128.50;105524;1296;22512;-86
2022/10/31 12:06:45;;;;;;;43.30;22.90;;;;;;;23.18;45.12;97125.90;105430;1299;22480;-87
2022/10/31 12:09:24;;;;;;;52.40;25.80;;;;;;;23.16;45.08;97125.33;105142;1305;23562;-83
2022/10/31 12:12:31;;;;;;;23.30;10.90;;;;;;;23.14;45.28;97125.81;105413;1297;22475;-84
2022/10/31 12:15:15;;;;;;;25.00;13.70;;;;;;;23.13;45.18;97126.64;105429;1275;22502;-84